Terminal Aerodrome Forecast
Issued by NWS Blacksburg, VA

Home | Current Version | Previous Version | Text Only | Print | Product List | Glossary On
Versions: 1 2 3 4 5 6 7 8 9 10 11 12 13 14 15 16 17 18 19 20 21 22 23 24 25 26
000
FTUS41 KRNK 300533
TAFROA
TAF
KROA 300533Z 3006/0106 00000KT P6SM SCT080
     FM301000 31003KT 4SM BR SKC
      TEMPO 3010/3012 2SM BR
     FM301300 00000KT P6SM SCT020
     FM302100 09003KT P6SM SCT050=

USA.gov is the U.S. government's official web portal to all federal, state and local government web resources and services.